sensor_id;sensor_type;location;lat;lon;timestamp;P1;durP1;ratioP1;P2;durP2;ratioP2
22256;SDS011;11297;42.686;23.374;2022-10-16T00:00:40;11.53;;;8.67;;
22256;SDS011;11297;42.686;23.374;2022-10-16T00:03:06;10.53;;;8.07;;
22256;SDS011;11297;42.686;23.374;2022-10-16T00:05:37;10.97;;;8.80;;
22256;SDS011;11297;42.686;23.374;2022-10-16T00:08:04;9.63;;;8.33;;
22256;SDS011;11297;42.686;23.374;2022-10-16T00:10:30;13.17;;;8.77;;
22256;SDS011;11297;42.686;23.374;2022-10-16T00:12:56;11.73;;;9.17;;
22256;SDS011;11297;42.686;23.374;2022-10-16T00:15:21;10.77;;;9.47;;
22256;SDS011;11297;42.686;23.374;2022-10-16T00:17:47;11.97;;;9.63;;
22256;SDS011;11297;42.686;23.374;2022-10-16T00:20:12;17.10;;;9.30;;
22256;SDS011;11297;42.686;23.374;2022-10-16T00:22:37;12.07;;;9.73;;
22256;SDS011;11297;42.686;23.374;2022-10-16T00:25:03;12.53;;;9.90;;
22256;SDS011;11297;42.686;23.374;2022-10-16T00:27:28;10.53;;;9.23;;
22256;SDS011;11297;42.686;23.374;2022-10-16T00:29:54;15.30;;;9.30;;
22256;SDS011;11297;42.686;23.374;2022-10-16T00:32:19;12.80;;;10.03;;
22256;SDS011;11297;42.686;23.374;2022-10-16T00:34:45;10.37;;;9.17;;
22256;SDS011;11297;42.686;23.374;2022-10-16T00:37:11;14.93;;;8.77;;
22256;SDS011;11297;42.686;23.374;2022-10-16T00:39:37;10.10;;;9.10;;
22256;SDS011;11297;42.686;23.374;2022-10-16T00:42:03;10.40;;;8.50;;
22256;SDS011;11297;42.686;23.374;2022-10-16T00:52:39;11.30;;;8.80;;
22256;SDS011;11297;42.686;23.374;2022-10-16T00:55:09;11.57;;;9.33;;
22256;SDS011;11297;42.686;23.374;2022-10-16T00:57:36;10.83;;;8.73;;
22256;SDS011;11297;42.686;23.374;2022-10-16T01:00:04;12.03;;;9.10;;
22256;SDS011;11297;42.686;23.374;2022-10-16T01:02:32;10.47;;;8.23;;
22256;SDS011;11297;42.686;23.374;2022-10-16T01:04:58;10.13;;;8.57;;
22256;SDS011;11297;42.686;23.374;2022-10-16T01:15:26;12.13;;;9.03;;
22256;SDS011;11297;42.686;23.374;2022-10-16T01:20:26;10.77;;;8.33;;
22256;SDS011;11297;42.686;23.374;2022-10-16T01:25:39;14.80;;;11.43;;
22256;SDS011;11297;42.686;23.374;2022-10-16T01:28:11;13.90;;;11.03;;
22256;SDS011;11297;42.686;23.374;2022-10-16T01:30:39;12.10;;;9.70;;
22256;SDS011;11297;42.686;23.374;2022-10-16T01:33:24;13.63;;;10.50;;
22256;SDS011;11297;42.686;23.374;2022-10-16T01:35:56;15.77;;;10.23;;
22256;SDS011;11297;42.686;23.374;2022-10-16T01:38:37;14.17;;;10.30;;
22256;SDS011;11297;42.686;23.374;2022-10-16T01:41:07;14.27;;;10.83;;
22256;SDS011;11297;42.686;23.374;2022-10-16T01:43:38;12.73;;;11.10;;
22256;SDS011;11297;42.686;23.374;2022-10-16T01:46:10;16.30;;;10.43;;
22256;SDS011;11297;42.686;23.374;2022-10-16T01:48:39;14.30;;;10.27;;
22256;SDS011;11297;42.686;23.374;2022-10-16T01:51:06;12.33;;;10.60;;
22256;SDS011;11297;42.686;23.374;2022-10-16T01:53:35;20.77;;;15.33;;
22256;SDS011;11297;42.686;23.374;2022-10-16T01:56:02;17.63;;;13.53;;
22256;SDS011;11297;42.686;23.374;2022-10-16T01:58:32;15.47;;;11.73;;
22256;SDS011;11297;42.686;23.374;2022-10-16T02:01:02;27.30;;;16.60;;
22256;SDS011;11297;42.686;23.374;2022-10-16T02:03:29;35.60;;;23.93;;
22256;SDS011;11297;42.686;23.374;2022-10-16T02:05:57;28.23;;;18.60;;
22256;SDS011;11297;42.686;23.374;2022-10-16T02:08:24;38.87;;;27.40;;
22256;SDS011;11297;42.686;23.374;2022-10-16T02:10:54;38.70;;;22.73;;
22256;SDS011;11297;42.686;23.374;2022-10-16T02:13:26;22.20;;;14.33;;
22256;SDS011;11297;42.686;23.374;2022-10-16T02:15:56;28.20;;;18.10;;
22256;SDS011;11297;42.686;23.374;2022-10-16T02:18:22;27.17;;;17.80;;
22256;SDS011;11297;42.686;23.374;2022-10-16T02:21:01;17.60;;;14.53;;
22256;SDS011;11297;42.686;23.374;2022-10-16T02:25:58;11.03;;;8.20;;
22256;SDS011;11297;42.686;23.374;2022-10-16T02:28:30;14.33;;;10.17;;
22256;SDS011;11297;42.686;23.374;2022-10-16T02:31:04;16.83;;;11.90;;
22256;SDS011;11297;42.686;23.374;2022-10-16T02:33:36;14.47;;;12.17;;
22256;SDS011;11297;42.686;23.374;2022-10-16T02:36:05;17.63;;;13.23;;
22256;SDS011;11297;42.686;23.374;2022-10-16T02:38:31;17.43;;;13.63;;
22256;SDS011;11297;42.686;23.374;2022-10-16T02:40:58;15.03;;;12.53;;
22256;SDS011;11297;42.686;23.374;2022-10-16T02:43:24;13.17;;;10.53;;
22256;SDS011;11297;42.686;23.374;2022-10-16T02:45:50;12.73;;;11.23;;
22256;SDS011;11297;42.686;23.374;2022-10-16T02:48:15;12.70;;;11.27;;
22256;SDS011;11297;42.686;23.374;2022-10-16T02:50:41;12.63;;;10.17;;
22256;SDS011;11297;42.686;23.374;2022-10-16T02:53:06;14.10;;;10.27;;
22256;SDS011;11297;42.686;23.374;2022-10-16T02:55:31;17.60;;;13.70;;
22256;SDS011;11297;42.686;23.374;2022-10-16T02:57:57;14.37;;;11.07;;
22256;SDS011;11297;42.686;23.374;2022-10-16T03:00:22;21.47;;;16.03;;
22256;SDS011;11297;42.686;23.374;2022-10-16T03:02:48;22.87;;;16.73;;
22256;SDS011;11297;42.686;23.374;2022-10-16T03:05:13;16.97;;;12.13;;
22256;SDS011;11297;42.686;23.374;2022-10-16T03:07:39;16.40;;;11.77;;
22256;SDS011;11297;42.686;23.374;2022-10-16T03:10:05;15.03;;;10.63;;
22256;SDS011;11297;42.686;23.374;2022-10-16T03:12:31;12.57;;;8.93;;
22256;SDS011;11297;42.686;23.374;2022-10-16T03:14:56;12.67;;;10.37;;
22256;SDS011;11297;42.686;23.374;2022-10-16T03:17:22;12.63;;;9.37;;
22256;SDS011;11297;42.686;23.374;2022-10-16T03:19:48;9.87;;;7.77;;
22256;SDS011;11297;42.686;23.374;2022-10-16T03:22:13;10.20;;;7.70;;
22256;SDS011;11297;42.686;23.374;2022-10-16T03:24:38;12.33;;;8.00;;
22256;SDS011;11297;42.686;23.374;2022-10-16T03:27:04;9.83;;;7.33;;
22256;SDS011;11297;42.686;23.374;2022-10-16T03:29:30;7.80;;;6.97;;
22256;SDS011;11297;42.686;23.374;2022-10-16T03:31:57;9.10;;;7.83;;
22256;SDS011;11297;42.686;23.374;2022-10-16T03:34:22;9.13;;;7.13;;
22256;SDS011;11297;42.686;23.374;2022-10-16T03:36:48;11.63;;;7.60;;
22256;SDS011;11297;42.686;23.374;2022-10-16T03:39:13;11.20;;;8.50;;
22256;SDS011;11297;42.686;23.374;2022-10-16T03:41:38;9.77;;;7.53;;
22256;SDS011;11297;42.686;23.374;2022-10-16T03:44:04;10.77;;;8.97;;
22256;SDS011;11297;42.686;23.374;2022-10-16T03:46:29;10.80;;;8.40;;
22256;SDS011;11297;42.686;23.374;2022-10-16T03:48:55;10.97;;;8.47;;
22256;SDS011;11297;42.686;23.374;2022-10-16T03:51:20;9.50;;;8.50;;
22256;SDS011;11297;42.686;23.374;2022-10-16T03:53:46;10.33;;;8.63;;
22256;SDS011;11297;42.686;23.374;2022-10-16T03:56:11;11.70;;;8.80;;
22256;SDS011;11297;42.686;23.374;2022-10-16T03:58:36;11.20;;;8.60;;
22256;SDS011;11297;42.686;23.374;2022-10-16T04:01:02;10.63;;;8.90;;
22256;SDS011;11297;42.686;23.374;2022-10-16T04:03:27;12.03;;;9.53;;
22256;SDS011;11297;42.686;23.374;2022-10-16T04:05:53;11.20;;;9.97;;
22256;SDS011;11297;42.686;23.374;2022-10-16T04:08:18;13.47;;;9.67;;
22256;SDS011;11297;42.686;23.374;2022-10-16T04:10:43;13.50;;;9.77;;
22256;SDS011;11297;42.686;23.374;2022-10-16T04:13:09;13.83;;;9.53;;
22256;SDS011;11297;42.686;23.374;2022-10-16T04:15:35;10.10;;;9.03;;
22256;SDS011;11297;42.686;23.374;2022-10-16T04:18:00;10.27;;;8.30;;
22256;SDS011;11297;42.686;23.374;2022-10-16T04:20:26;10.20;;;8.20;;
22256;SDS011;11297;42.686;23.374;2022-10-16T04:22:51;15.03;;;12.50;;
22256;SDS011;11297;42.686;23.374;2022-10-16T04:25:17;31.00;;;25.80;;
22256;SDS011;11297;42.686;23.374;2022-10-16T04:27:42;20.03;;;14.10;;
22256;SDS011;11297;42.686;23.374;2022-10-16T04:30:08;17.73;;;13.27;;
22256;SDS011;11297;42.686;23.374;2022-10-16T04:32:33;21.10;;;17.93;;
22256;SDS011;11297;42.686;23.374;2022-10-16T04:34:59;19.23;;;13.87;;
22256;SDS011;11297;42.686;23.374;2022-10-16T04:37:25;18.43;;;14.37;;
22256;SDS011;11297;42.686;23.374;2022-10-16T04:39:51;18.93;;;15.30;;
22256;SDS011;11297;42.686;23.374;2022-10-16T04:42:18;23.53;;;21.03;;
22256;SDS011;11297;42.686;23.374;2022-10-16T04:44:43;22.53;;;20.27;;
22256;SDS011;11297;42.686;23.374;2022-10-16T04:47:08;24.57;;;22.07;;
22256;SDS011;11297;42.686;23.374;2022-10-16T04:49:34;26.07;;;23.37;;
22256;SDS011;11297;42.686;23.374;2022-10-16T04:51:59;27.47;;;24.37;;
22256;SDS011;11297;42.686;23.374;2022-10-16T04:54:25;24.17;;;20.23;;
22256;SDS011;11297;42.686;23.374;2022-10-16T04:56:50;19.13;;;15.77;;
22256;SDS011;11297;42.686;23.374;2022-10-16T04:59:17;14.90;;;13.20;;
22256;SDS011;11297;42.686;23.374;2022-10-16T05:01:44;14.70;;;10.73;;
22256;SDS011;11297;42.686;23.374;2022-10-16T05:04:09;18.97;;;11.93;;
22256;SDS011;11297;42.686;23.374;2022-10-16T05:06:35;14.60;;;11.33;;
22256;SDS011;11297;42.686;23.374;2022-10-16T05:09:00;13.40;;;11.20;;
22256;SDS011;11297;42.686;23.374;2022-10-16T05:11:26;14.57;;;10.53;;
22256;SDS011;11297;42.686;23.374;2022-10-16T05:13:51;13.73;;;10.30;;
22256;SDS011;11297;42.686;23.374;2022-10-16T05:16:17;14.30;;;11.17;;
22256;SDS011;11297;42.686;23.374;2022-10-16T05:18:42;12.30;;;9.87;;
22256;SDS011;11297;42.686;23.374;2022-10-16T05:21:08;15.80;;;11.53;;
22256;SDS011;11297;42.686;23.374;2022-10-16T05:23:33;12.93;;;9.87;;
22256;SDS011;11297;42.686;23.374;2022-10-16T05:25:59;15.10;;;11.20;;
22256;SDS011;11297;42.686;23.374;2022-10-16T05:28:25;21.60;;;14.83;;
22256;SDS011;11297;42.686;23.374;2022-10-16T05:30:52;18.57;;;14.23;;
22256;SDS011;11297;42.686;23.374;2022-10-16T05:33:21;14.33;;;11.43;;
22256;SDS011;11297;42.686;23.374;2022-10-16T05:35:48;11.43;;;8.60;;
22256;SDS011;11297;42.686;23.374;2022-10-16T05:38:15;12.77;;;9.40;;
22256;SDS011;11297;42.686;23.374;2022-10-16T05:40:41;16.30;;;10.13;;
22256;SDS011;11297;42.686;23.374;2022-10-16T05:43:06;12.97;;;8.70;;
22256;SDS011;11297;42.686;23.374;2022-10-16T05:45:32;13.07;;;9.73;;
22256;SDS011;11297;42.686;23.374;2022-10-16T05:47:57;11.17;;;9.80;;
22256;SDS011;11297;42.686;23.374;2022-10-16T05:50:22;15.90;;;11.47;;
22256;SDS011;11297;42.686;23.374;2022-10-16T05:52:48;20.10;;;15.07;;
22256;SDS011;11297;42.686;23.374;2022-10-16T05:55:13;18.53;;;14.40;;
22256;SDS011;11297;42.686;23.374;2022-10-16T05:57:39;22.53;;;17.33;;
22256;SDS011;11297;42.686;23.374;2022-10-16T06:00:04;16.30;;;12.07;;
22256;SDS011;11297;42.686;23.374;2022-10-16T06:02:30;18.97;;;13.60;;
22256;SDS011;11297;42.686;23.374;2022-10-16T06:04:56;23.20;;;17.43;;
22256;SDS011;11297;42.686;23.374;2022-10-16T06:07:21;28.67;;;22.63;;
22256;SDS011;11297;42.686;23.374;2022-10-16T06:09:48;26.27;;;21.47;;
22256;SDS011;11297;42.686;23.374;2022-10-16T06:12:14;30.67;;;23.33;;
22256;SDS011;11297;42.686;23.374;2022-10-16T06:14:40;25.73;;;20.47;;
22256;SDS011;11297;42.686;23.374;2022-10-16T06:17:06;25.77;;;18.30;;
22256;SDS011;11297;42.686;23.374;2022-10-16T06:19:31;23.47;;;18.10;;
22256;SDS011;11297;42.686;23.374;2022-10-16T06:21:56;21.63;;;16.90;;
22256;SDS011;11297;42.686;23.374;2022-10-16T06:24:23;19.50;;;15.70;;
22256;SDS011;11297;42.686;23.374;2022-10-16T06:26:49;19.53;;;15.17;;
22256;SDS011;11297;42.686;23.374;2022-10-16T06:29:15;17.83;;;14.20;;
22256;SDS011;11297;42.686;23.374;2022-10-16T06:31:40;17.03;;;13.43;;
22256;SDS011;11297;42.686;23.374;2022-10-16T06:34:08;17.63;;;14.17;;
22256;SDS011;11297;42.686;23.374;2022-10-16T06:36:35;16.27;;;10.27;;
22256;SDS011;11297;42.686;23.374;2022-10-16T06:39:02;11.33;;;7.60;;
22256;SDS011;11297;42.686;23.374;2022-10-16T06:41:28;12.40;;;11.03;;
22256;SDS011;11297;42.686;23.374;2022-10-16T06:43:53;15.17;;;11.77;;
22256;SDS011;11297;42.686;23.374;2022-10-16T06:46:20;15.37;;;12.27;;
22256;SDS011;11297;42.686;23.374;2022-10-16T06:48:47;14.93;;;11.60;;
22256;SDS011;11297;42.686;23.374;2022-10-16T06:51:14;16.30;;;11.43;;
22256;SDS011;11297;42.686;23.374;2022-10-16T06:53:42;15.27;;;11.67;;
22256;SDS011;11297;42.686;23.374;2022-10-16T06:56:11;9.33;;;8.43;;
22256;SDS011;11297;42.686;23.374;2022-10-16T06:58:37;13.27;;;9.13;;
22256;SDS011;11297;42.686;23.374;2022-10-16T07:01:03;9.80;;;7.53;;
22256;SDS011;11297;42.686;23.374;2022-10-16T07:03:30;9.47;;;8.07;;
22256;SDS011;11297;42.686;23.374;2022-10-16T07:05:56;9.10;;;8.10;;
22256;SDS011;11297;42.686;23.374;2022-10-16T07:08:21;9.23;;;8.33;;
22256;SDS011;11297;42.686;23.374;2022-10-16T07:10:47;9.03;;;7.17;;
22256;SDS011;11297;42.686;23.374;2022-10-16T07:13:12;9.23;;;7.40;;
22256;SDS011;11297;42.686;23.374;2022-10-16T07:15:39;10.33;;;7.20;;
22256;SDS011;11297;42.686;23.374;2022-10-16T07:18:05;9.17;;;6.57;;
22256;SDS011;11297;42.686;23.374;2022-10-16T07:20:31;8.83;;;7.47;;
22256;SDS011;11297;42.686;23.374;2022-10-16T07:22:56;9.83;;;7.50;;
22256;SDS011;11297;42.686;23.374;2022-10-16T07:25:22;8.33;;;6.73;;
22256;SDS011;11297;42.686;23.374;2022-10-16T07:27:47;10.30;;;7.70;;
22256;SDS011;11297;42.686;23.374;2022-10-16T07:30:13;12.30;;;5.90;;
22256;SDS011;11297;42.686;23.374;2022-10-16T07:32:38;7.17;;;6.43;;
22256;SDS011;11297;42.686;23.374;2022-10-16T07:35:04;9.33;;;6.10;;
22256;SDS011;11297;42.686;23.374;2022-10-16T07:37:30;8.07;;;6.00;;
22256;SDS011;11297;42.686;23.374;2022-10-16T07:39:55;8.30;;;5.83;;
22256;SDS011;11297;42.686;23.374;2022-10-16T07:42:20;9.10;;;5.93;;
22256;SDS011;11297;42.686;23.374;2022-10-16T07:44:46;9.70;;;6.30;;
22256;SDS011;11297;42.686;23.374;2022-10-16T07:47:11;6.23;;;5.53;;
22256;SDS011;11297;42.686;23.374;2022-10-16T07:49:37;8.40;;;5.83;;
22256;SDS011;11297;42.686;23.374;2022-10-16T07:52:02;9.17;;;6.40;;
22256;SDS011;11297;42.686;23.374;2022-10-16T07:54:27;7.10;;;6.40;;
22256;SDS011;11297;42.686;23.374;2022-10-16T07:56:53;12.80;;;7.13;;
22256;SDS011;11297;42.686;23.374;2022-10-16T07:59:18;8.40;;;7.50;;
22256;SDS011;11297;42.686;23.374;2022-10-16T08:01:43;7.57;;;5.97;;
22256;SDS011;11297;42.686;23.374;2022-10-16T08:04:09;12.43;;;6.57;;
22256;SDS011;11297;42.686;23.374;2022-10-16T08:06:38;8.23;;;6.10;;
22256;SDS011;11297;42.686;23.374;2022-10-16T08:09:05;10.10;;;7.33;;
22256;SDS011;11297;42.686;23.374;2022-10-16T08:11:31;9.93;;;8.93;;
22256;SDS011;11297;42.686;23.374;2022-10-16T08:13:57;12.37;;;7.80;;
22256;SDS011;11297;42.686;23.374;2022-10-16T08:16:22;26.80;;;7.20;;
22256;SDS011;11297;42.686;23.374;2022-10-16T08:18:48;7.60;;;5.60;;
22256;SDS011;11297;42.686;23.374;2022-10-16T08:21:14;9.00;;;6.40;;
22256;SDS011;11297;42.686;23.374;2022-10-16T08:23:41;13.73;;;5.97;;
22256;SDS011;11297;42.686;23.374;2022-10-16T08:26:07;8.87;;;6.57;;
22256;SDS011;11297;42.686;23.374;2022-10-16T08:28:33;9.77;;;5.77;;
22256;SDS011;11297;42.686;23.374;2022-10-16T08:31:08;5.43;;;4.80;;
22256;SDS011;11297;42.686;23.374;2022-10-16T08:33:36;7.33;;;5.10;;
22256;SDS011;11297;42.686;23.374;2022-10-16T08:36:02;6.43;;;4.53;;
22256;SDS011;11297;42.686;23.374;2022-10-16T08:38:29;8.30;;;5.33;;
22256;SDS011;11297;42.686;23.374;2022-10-16T08:40:57;5.40;;;4.30;;
22256;SDS011;11297;42.686;23.374;2022-10-16T08:52:29;3.60;;;3.20;;
22256;SDS011;11297;42.686;23.374;2022-10-16T08:54:58;5.13;;;3.47;;
22256;SDS011;11297;42.686;23.374;2022-10-16T08:57:25;3.33;;;3.00;;
22256;SDS011;11297;42.686;23.374;2022-10-16T08:59:53;7.50;;;5.97;;
22256;SDS011;11297;42.686;23.374;2022-10-16T09:02:32;10.03;;;3.97;;
22256;SDS011;11297;42.686;23.374;2022-10-16T09:10:59;4.43;;;3.17;;
22256;SDS011;11297;42.686;23.374;2022-10-16T09:16:28;3.50;;;3.20;;
22256;SDS011;11297;42.686;23.374;2022-10-16T09:19:10;6.47;;;3.60;;
22256;SDS011;11297;42.686;23.374;2022-10-16T09:21:43;5.23;;;3.17;;
22256;SDS011;11297;42.686;23.374;2022-10-16T09:26:43;5.60;;;3.37;;
22256;SDS011;11297;42.686;23.374;2022-10-16T09:29:13;5.17;;;3.33;;
22256;SDS011;11297;42.686;23.374;2022-10-16T09:31:40;6.77;;;3.80;;
22256;SDS011;11297;42.686;23.374;2022-10-16T09:34:08;4.43;;;3.27;;
22256;SDS011;11297;42.686;23.374;2022-10-16T09:36:44;5.70;;;3.47;;
22256;SDS011;11297;42.686;23.374;2022-10-16T09:39:11;4.33;;;3.37;;
22256;SDS011;11297;42.686;23.374;2022-10-16T09:41:37;5.47;;;4.00;;
22256;SDS011;11297;42.686;23.374;2022-10-16T09:44:15;3.67;;;2.87;;
22256;SDS011;11297;42.686;23.374;2022-10-16T09:47:00;4.20;;;3.27;;
22256;SDS011;11297;42.686;23.374;2022-10-16T09:49:30;3.87;;;3.30;;
22256;SDS011;11297;42.686;23.374;2022-10-16T09:52:06;6.97;;;4.00;;
22256;SDS011;11297;42.686;23.374;2022-10-16T09:54:37;4.97;;;3.30;;
22256;SDS011;11297;42.686;23.374;2022-10-16T09:57:13;6.97;;;3.40;;
22256;SDS011;11297;42.686;23.374;2022-10-16T09:59:48;4.13;;;3.33;;
22256;SDS011;11297;42.686;23.374;2022-10-16T10:02:19;6.23;;;3.43;;
22256;SDS011;11297;42.686;23.374;2022-10-16T10:04:51;6.90;;;3.57;;
22256;SDS011;11297;42.686;23.374;2022-10-16T10:07:25;7.43;;;3.93;;
22256;SDS011;11297;42.686;23.374;2022-10-16T10:10:04;5.27;;;4.00;;
22256;SDS011;11297;42.686;23.374;2022-10-16T10:12:31;4.53;;;3.47;;
22256;SDS011;11297;42.686;23.374;2022-10-16T10:15:04;7.97;;;4.20;;
22256;SDS011;11297;42.686;23.374;2022-10-16T10:17:30;8.17;;;3.83;;
22256;SDS011;11297;42.686;23.374;2022-10-16T10:19:57;6.27;;;3.90;;
22256;SDS011;11297;42.686;23.374;2022-10-16T10:31:21;6.13;;;3.60;;
22256;SDS011;11297;42.686;23.374;2022-10-16T10:33:39;4.77;;;3.37;;
22256;SDS011;11297;42.686;23.374;2022-10-16T10:38:39;4.37;;;3.80;;
22256;SDS011;11297;42.686;23.374;2022-10-16T10:43:54;6.23;;;4.40;;
22256;SDS011;11297;42.686;23.374;2022-10-16T10:49:27;5.07;;;3.60;;
22256;SDS011;11297;42.686;23.374;2022-10-16T10:55:02;7.37;;;3.90;;
22256;SDS011;11297;42.686;23.374;2022-10-16T11:08:41;7.47;;;4.40;;
22256;SDS011;11297;42.686;23.374;2022-10-16T11:11:20;8.20;;;4.10;;
22256;SDS011;11297;42.686;23.374;2022-10-16T11:14:00;6.27;;;3.80;;
22256;SDS011;11297;42.686;23.374;2022-10-16T11:16:42;7.97;;;4.07;;
22256;SDS011;11297;42.686;23.374;2022-10-16T11:21:50;5.10;;;2.97;;
22256;SDS011;11297;42.686;23.374;2022-10-16T11:27:08;4.73;;;4.00;;
22256;SDS011;11297;42.686;23.374;2022-10-16T11:29:43;7.10;;;3.70;;
22256;SDS011;11297;42.686;23.374;2022-10-16T11:32:19;4.40;;;3.60;;
22256;SDS011;11297;42.686;23.374;2022-10-16T11:34:52;4.53;;;3.63;;
22256;SDS011;11297;42.686;23.374;2022-10-16T11:37:27;6.80;;;3.90;;
22256;SDS011;11297;42.686;23.374;2022-10-16T11:40:02;4.73;;;3.27;;
22256;SDS011;11297;42.686;23.374;2022-10-16T11:42:42;6.43;;;3.67;;
22256;SDS011;11297;42.686;23.374;2022-10-16T11:50:54;4.47;;;2.83;;
22256;SDS011;11297;42.686;23.374;2022-10-16T11:56:04;3.97;;;3.20;;
22256;SDS011;11297;42.686;23.374;2022-10-16T12:09:34;3.20;;;2.77;;
22256;SDS011;11297;42.686;23.374;2022-10-16T12:12:03;6.87;;;3.60;;
22256;SDS011;11297;42.686;23.374;2022-10-16T12:16:58;3.73;;;2.77;;
22256;SDS011;11297;42.686;23.374;2022-10-16T12:19:31;3.07;;;2.73;;
22256;SDS011;11297;42.686;23.374;2022-10-16T12:21:58;3.33;;;3.03;;
22256;SDS011;11297;42.686;23.374;2022-10-16T12:26:51;7.60;;;3.00;;
22256;SDS011;11297;42.686;23.374;2022-10-16T12:29:36;3.30;;;2.97;;
22256;SDS011;11297;42.686;23.374;2022-10-16T12:32:05;3.10;;;2.80;;
22256;SDS011;11297;42.686;23.374;2022-10-16T12:34:51;4.80;;;3.30;;
22256;SDS011;11297;42.686;23.374;2022-10-16T12:39:50;4.60;;;3.17;;
22256;SDS011;11297;42.686;23.374;2022-10-16T12:44:48;6.00;;;3.43;;
22256;SDS011;11297;42.686;23.374;2022-10-16T12:49:53;5.73;;;3.50;;
22256;SDS011;11297;42.686;23.374;2022-10-16T12:52:38;4.03;;;3.33;;
22256;SDS011;11297;42.686;23.374;2022-10-16T12:55:05;5.07;;;3.37;;
22256;SDS011;11297;42.686;23.374;2022-10-16T13:00:13;5.67;;;3.50;;
22256;SDS011;11297;42.686;23.374;2022-10-16T13:15:57;6.13;;;3.67;;
22256;SDS011;11297;42.686;23.374;2022-10-16T13:26:41;4.43;;;3.10;;
22256;SDS011;11297;42.686;23.374;2022-10-16T13:29:14;3.60;;;2.97;;
22256;SDS011;11297;42.686;23.374;2022-10-16T13:31:40;3.70;;;2.80;;
22256;SDS011;11297;42.686;23.374;2022-10-16T13:34:10;3.10;;;2.80;;
22256;SDS011;11297;42.686;23.374;2022-10-16T13:36:47;4.57;;;2.93;;
22256;SDS011;11297;42.686;23.374;2022-10-16T13:39:24;3.67;;;3.00;;
22256;SDS011;11297;42.686;23.374;2022-10-16T13:42:01;3.47;;;3.10;;
22256;SDS011;11297;42.686;23.374;2022-10-16T13:44:27;3.73;;;2.20;;
22256;SDS011;11297;42.686;23.374;2022-10-16T13:46:59;3.87;;;2.70;;
22256;SDS011;11297;42.686;23.374;2022-10-16T13:49:26;3.93;;;2.60;;
22256;SDS011;11297;42.686;23.374;2022-10-16T13:51:55;3.60;;;3.00;;
22256;SDS011;11297;42.686;23.374;2022-10-16T13:54:22;3.20;;;2.70;;
22256;SDS011;11297;42.686;23.374;2022-10-16T13:56:48;5.40;;;2.90;;
22256;SDS011;11297;42.686;23.374;2022-10-16T13:59:26;3.33;;;3.03;;
22256;SDS011;11297;42.686;23.374;2022-10-16T14:01:58;3.73;;;3.00;;
22256;SDS011;11297;42.686;23.374;2022-10-16T14:04:31;3.67;;;2.57;;
22256;SDS011;11297;42.686;23.374;2022-10-16T14:06:58;4.73;;;2.97;;
22256;SDS011;11297;42.686;23.374;2022-10-16T14:11:50;3.90;;;3.50;;
22256;SDS011;11297;42.686;23.374;2022-10-16T14:14:18;6.40;;;3.80;;
22256;SDS011;11297;42.686;23.374;2022-10-16T14:16:44;3.73;;;2.97;;
22256;SDS011;11297;42.686;23.374;2022-10-16T14:19:27;5.00;;;3.10;;
22256;SDS011;11297;42.686;23.374;2022-10-16T14:21:54;6.53;;;3.87;;
22256;SDS011;11297;42.686;23.374;2022-10-16T14:24:41;3.60;;;3.30;;
22256;SDS011;11297;42.686;23.374;2022-10-16T14:30:30;6.63;;;3.80;;
22256;SDS011;11297;42.686;23.374;2022-10-16T14:32:53;4.83;;;4.10;;
22256;SDS011;11297;42.686;23.374;2022-10-16T14:35:28;9.60;;;5.00;;
22256;SDS011;11297;42.686;23.374;2022-10-16T14:38:18;8.80;;;4.53;;
22256;SDS011;11297;42.686;23.374;2022-10-16T14:40:46;9.27;;;4.40;;
22256;SDS011;11297;42.686;23.374;2022-10-16T14:43:14;6.57;;;4.33;;
22256;SDS011;11297;42.686;23.374;2022-10-16T14:45:54;5.33;;;4.50;;
22256;SDS011;11297;42.686;23.374;2022-10-16T14:48:21;9.10;;;5.10;;
22256;SDS011;11297;42.686;23.374;2022-10-16T14:50:47;4.33;;;3.70;;
22256;SDS011;11297;42.686;23.374;2022-10-16T14:53:13;3.93;;;3.43;;
22256;SDS011;11297;42.686;23.374;2022-10-16T14:55:39;4.10;;;3.40;;
22256;SDS011;11297;42.686;23.374;2022-10-16T14:58:06;5.50;;;3.90;;
22256;SDS011;11297;42.686;23.374;2022-10-16T15:00:45;4.87;;;4.20;;
22256;SDS011;11297;42.686;23.374;2022-10-16T15:03:11;7.57;;;4.57;;
22256;SDS011;11297;42.686;23.374;2022-10-16T15:05:36;7.40;;;4.00;;
22256;SDS011;11297;42.686;23.374;2022-10-16T15:08:02;4.27;;;3.50;;
22256;SDS011;11297;42.686;23.374;2022-10-16T15:10:29;7.10;;;5.70;;
22256;SDS011;11297;42.686;23.374;2022-10-16T15:12:57;5.77;;;4.97;;
22256;SDS011;11297;42.686;23.374;2022-10-16T15:17:48;9.73;;;4.70;;
22256;SDS011;11297;42.686;23.374;2022-10-16T15:20:17;5.70;;;4.17;;
22256;SDS011;11297;42.686;23.374;2022-10-16T15:22:43;4.83;;;4.03;;
22256;SDS011;11297;42.686;23.374;2022-10-16T15:25:25;5.60;;;4.30;;
22256;SDS011;11297;42.686;23.374;2022-10-16T15:27:52;6.67;;;3.73;;
22256;SDS011;11297;42.686;23.374;2022-10-16T15:30:18;11.83;;;7.37;;
22256;SDS011;11297;42.686;23.374;2022-10-16T15:32:43;20.27;;;11.10;;
22256;SDS011;11297;42.686;23.374;2022-10-16T15:35:09;17.50;;;10.67;;
22256;SDS011;11297;42.686;23.374;2022-10-16T15:37:34;14.67;;;8.50;;
22256;SDS011;11297;42.686;23.374;2022-10-16T15:40:00;12.00;;;8.67;;
22256;SDS011;11297;42.686;23.374;2022-10-16T15:42:25;13.67;;;9.30;;
22256;SDS011;11297;42.686;23.374;2022-10-16T15:44:51;11.63;;;6.97;;
22256;SDS011;11297;42.686;23.374;2022-10-16T15:47:16;8.83;;;6.70;;
22256;SDS011;11297;42.686;23.374;2022-10-16T15:49:42;15.20;;;6.13;;
22256;SDS011;11297;42.686;23.374;2022-10-16T15:52:07;9.07;;;6.73;;
22256;SDS011;11297;42.686;23.374;2022-10-16T15:54:32;13.90;;;7.83;;
22256;SDS011;11297;42.686;23.374;2022-10-16T15:56:58;10.97;;;7.20;;
22256;SDS011;11297;42.686;23.374;2022-10-16T15:59:23;10.90;;;6.77;;
22256;SDS011;11297;42.686;23.374;2022-10-16T16:01:48;10.37;;;6.97;;
22256;SDS011;11297;42.686;23.374;2022-10-16T16:04:14;7.83;;;6.07;;
22256;SDS011;11297;42.686;23.374;2022-10-16T16:06:39;11.77;;;7.53;;
22256;SDS011;11297;42.686;23.374;2022-10-16T16:09:09;11.90;;;8.13;;
22256;SDS011;11297;42.686;23.374;2022-10-16T16:11:35;10.63;;;7.77;;
22256;SDS011;11297;42.686;23.374;2022-10-16T16:14:03;8.37;;;6.50;;
22256;SDS011;11297;42.686;23.374;2022-10-16T16:16:30;10.97;;;6.70;;
22256;SDS011;11297;42.686;23.374;2022-10-16T16:18:56;9.67;;;5.80;;
22256;SDS011;11297;42.686;23.374;2022-10-16T16:21:22;8.83;;;6.40;;
22256;SDS011;11297;42.686;23.374;2022-10-16T16:23:47;9.60;;;7.20;;
22256;SDS011;11297;42.686;23.374;2022-10-16T16:26:14;11.43;;;6.97;;
22256;SDS011;11297;42.686;23.374;2022-10-16T16:28:48;10.23;;;5.23;;
22256;SDS011;11297;42.686;23.374;2022-10-16T16:31:14;7.40;;;5.57;;
22256;SDS011;11297;42.686;23.374;2022-10-16T16:33:39;8.53;;;6.00;;
22256;SDS011;11297;42.686;23.374;2022-10-16T16:36:05;7.83;;;5.33;;
22256;SDS011;11297;42.686;23.374;2022-10-16T16:38:31;10.93;;;6.47;;
22256;SDS011;11297;42.686;23.374;2022-10-16T16:40:58;10.30;;;8.40;;
22256;SDS011;11297;42.686;23.374;2022-10-16T16:43:24;137.70;;;83.03;;
22256;SDS011;11297;42.686;23.374;2022-10-16T16:45:50;80.87;;;46.73;;
22256;SDS011;11297;42.686;23.374;2022-10-16T16:48:15;56.20;;;34.47;;
22256;SDS011;11297;42.686;23.374;2022-10-16T16:50:41;51.17;;;28.83;;
22256;SDS011;11297;42.686;23.374;2022-10-16T16:53:06;43.90;;;25.70;;